sensor_id;sensor_type;location;lat;lon;timestamp;pressure;altitude;pressure_sealevel;temperature;humidity
39223;BME280;24936;46.328;11.026;2023-05-23T00:01:44;94260.03;;;14.16;74.73
39223;BME280;24936;46.328;11.026;2023-05-23T00:04:13;94252.75;;;13.93;75.57
39223;BME280;24936;46.328;11.026;2023-05-23T00:32:30;94242.81;;;13.45;78.43
39223;BME280;24936;46.328;11.026;2023-05-23T00:42:39;94248.22;;;12.84;82.04
39223;BME280;24936;46.328;11.026;2023-05-23T00:45:04;94240.16;;;12.51;83.07
39223;BME280;24936;46.328;11.026;2023-05-23T00:47:30;94243.47;;;12.53;84.10
39223;BME280;24936;46.328;11.026;2023-05-23T00:49:56;94244.41;;;12.44;85.38
39223;BME280;24936;46.328;11.026;2023-05-23T00:52:22;94239.72;;;12.30;85.67
39223;BME280;24936;46.328;11.026;2023-05-23T00:54:48;94240.25;;;12.42;84.84
39223;BME280;24936;46.328;11.026;2023-05-23T00:57:14;94241.31;;;12.49;83.66
39223;BME280;24936;46.328;11.026;2023-05-23T00:59:39;94237.19;;;12.46;83.97
39223;BME280;24936;46.328;11.026;2023-05-23T01:02:05;94237.88;;;12.57;83.82
39223;BME280;24936;46.328;11.026;2023-05-23T01:04:31;94236.06;;;12.57;83.14
39223;BME280;24936;46.328;11.026;2023-05-23T01:06:58;94239.94;;;12.45;85.15
39223;BME280;24936;46.328;11.026;2023-05-23T01:09:26;94248.38;;;12.48;85.41
39223;BME280;24936;46.328;11.026;2023-05-23T01:14:47;94249.34;;;12.47;84.84
39223;BME280;24936;46.328;11.026;2023-05-23T01:17:23;94250.03;;;12.49;84.88
39223;BME280;24936;46.328;11.026;2023-05-23T01:19:58;94244.47;;;12.61;84.38
39223;BME280;24936;46.328;11.026;2023-05-23T01:28:07;94240.25;;;12.42;85.81
39223;BME280;24936;46.328;11.026;2023-05-23T01:30:38;94250.19;;;12.21;86.91
39223;BME280;24936;46.328;11.026;2023-05-23T01:33:06;94246.28;;;12.26;87.73
39223;BME280;24936;46.328;11.026;2023-05-23T01:35:32;94258.78;;;12.23;86.82
39223;BME280;24936;46.328;11.026;2023-05-23T01:49:47;94258.75;;;11.97;88.09
39223;BME280;24936;46.328;11.026;2023-05-23T01:52:16;94257.53;;;11.91;87.63
39223;BME280;24936;46.328;11.026;2023-05-23T02:21:12;94228.94;;;11.78;87.13
39223;BME280;24936;46.328;11.026;2023-05-23T02:23:38;94227.66;;;12.01;86.81
39223;BME280;24936;46.328;11.026;2023-05-23T02:26:03;94228.69;;;12.08;86.90
39223;BME280;24936;46.328;11.026;2023-05-23T02:28:29;94230.50;;;11.89;89.20
39223;BME280;24936;46.328;11.026;2023-05-23T02:30:55;94231.75;;;11.77;90.19
39223;BME280;24936;46.328;11.026;2023-05-23T02:33:20;94230.53;;;11.71;89.90
39223;BME280;24936;46.328;11.026;2023-05-23T02:35:46;94231.41;;;11.80;87.81
39223;BME280;24936;46.328;11.026;2023-05-23T02:38:11;94228.34;;;11.67;89.09
39223;BME280;24936;46.328;11.026;2023-05-23T02:40:37;94225.78;;;11.75;88.02
39223;BME280;24936;46.328;11.026;2023-05-23T02:43:02;94224.59;;;11.96;86.98
39223;BME280;24936;46.328;11.026;2023-05-23T02:45:28;94224.25;;;12.08;86.27
39223;BME280;24936;46.328;11.026;2023-05-23T02:47:53;94219.31;;;12.14;86.30
39223;BME280;24936;46.328;11.026;2023-05-23T02:50:19;94221.75;;;12.07;86.78
39223;BME280;24936;46.328;11.026;2023-05-23T02:52:44;94217.69;;;11.94;86.07
39223;BME280;24936;46.328;11.026;2023-05-23T02:55:10;94227.50;;;11.84;86.61
39223;BME280;24936;46.328;11.026;2023-05-23T02:57:35;94223.75;;;11.69;87.41
39223;BME280;24936;46.328;11.026;2023-05-23T03:00:01;94231.84;;;11.49;88.51
39223;BME280;24936;46.328;11.026;2023-05-23T03:02:27;94224.69;;;11.41;88.55
39223;BME280;24936;46.328;11.026;2023-05-23T03:04:52;94230.25;;;11.56;88.20
39223;BME280;24936;46.328;11.026;2023-05-23T03:07:20;94230.91;;;11.58;87.48
39223;BME280;24936;46.328;11.026;2023-05-23T03:09:45;94231.06;;;11.57;87.58
39223;BME280;24936;46.328;11.026;2023-05-23T03:12:11;94230.25;;;11.38;88.02
39223;BME280;24936;46.328;11.026;2023-05-23T03:14:36;94224.38;;;11.26;89.06
39223;BME280;24936;46.328;11.026;2023-05-23T03:17:02;94227.28;;;11.05;90.02
39223;BME280;24936;46.328;11.026;2023-05-23T03:19:28;94227.66;;;10.92;91.01
39223;BME280;24936;46.328;11.026;2023-05-23T03:21:53;94218.34;;;10.70;91.84
39223;BME280;24936;46.328;11.026;2023-05-23T03:24:19;94228.31;;;10.66;92.73
39223;BME280;24936;46.328;11.026;2023-05-23T03:26:45;94227.16;;;10.51;93.25
39223;BME280;24936;46.328;11.026;2023-05-23T03:29:10;94228.69;;;10.44;93.80
39223;BME280;24936;46.328;11.026;2023-05-23T03:31:36;94224.00;;;10.37;93.41
39223;BME280;24936;46.328;11.026;2023-05-23T03:34:02;94230.78;;;10.50;92.62
39223;BME280;24936;46.328;11.026;2023-05-23T03:36:30;94230.69;;;10.60;92.68
39223;BME280;24936;46.328;11.026;2023-05-23T03:38:57;94230.38;;;10.35;93.91
39223;BME280;24936;46.328;11.026;2023-05-23T03:41:26;94232.88;;;10.36;93.84
39223;BME280;24936;46.328;11.026;2023-05-23T03:43:51;94231.44;;;10.52;93.53
39223;BME280;24936;46.328;11.026;2023-05-23T03:46:17;94228.63;;;10.63;92.75
39223;BME280;24936;46.328;11.026;2023-05-23T03:48:43;94232.97;;;10.82;91.91
39223;BME280;24936;46.328;11.026;2023-05-23T03:51:08;94235.72;;;10.81;91.50
39223;BME280;24936;46.328;11.026;2023-05-23T03:53:34;94235.72;;;10.81;91.62
39223;BME280;24936;46.328;11.026;2023-05-23T03:55:59;94235.16;;;10.87;91.46
39223;BME280;24936;46.328;11.026;2023-05-23T03:58:25;94233.53;;;10.76;92.16
39223;BME280;24936;46.328;11.026;2023-05-23T04:00:50;94227.75;;;10.73;92.05
39223;BME280;24936;46.328;11.026;2023-05-23T04:03:17;94230.09;;;10.76;92.41
39223;BME280;24936;46.328;11.026;2023-05-23T04:05:42;94238.72;;;10.68;92.45
39223;BME280;24936;46.328;11.026;2023-05-23T04:08:08;94240.81;;;10.64;92.68
39223;BME280;24936;46.328;11.026;2023-05-23T04:10:34;94241.59;;;10.75;92.18
39223;BME280;24936;46.328;11.026;2023-05-23T04:12:59;94239.94;;;10.74;91.79
39223;BME280;24936;46.328;11.026;2023-05-23T04:15:25;94247.88;;;10.92;91.18
39223;BME280;24936;46.328;11.026;2023-05-23T04:17:52;94233.00;;;11.00;90.36
39223;BME280;24936;46.328;11.026;2023-05-23T04:20:18;94235.69;;;10.91;91.47
39223;BME280;24936;46.328;11.026;2023-05-23T04:22:44;94229.38;;;11.01;91.30
39223;BME280;24936;46.328;11.026;2023-05-23T04:25:09;94234.72;;;11.10;90.59
39223;BME280;24936;46.328;11.026;2023-05-23T04:27:35;94239.31;;;11.08;91.18
39223;BME280;24936;46.328;11.026;2023-05-23T04:30:05;94231.03;;;11.02;91.76
39223;BME280;24936;46.328;11.026;2023-05-23T04:32:33;94239.41;;;11.16;91.08
39223;BME280;24936;46.328;11.026;2023-05-23T04:34:59;94245.16;;;11.29;90.96
39223;BME280;24936;46.328;11.026;2023-05-23T04:37:26;94242.06;;;11.34;90.84
39223;BME280;24936;46.328;11.026;2023-05-23T04:39:52;94247.41;;;11.42;90.15
39223;BME280;24936;46.328;11.026;2023-05-23T04:42:18;94252.59;;;11.52;88.68
39223;BME280;24936;46.328;11.026;2023-05-23T04:44:49;94248.00;;;11.54;88.42
39223;BME280;24936;46.328;11.026;2023-05-23T04:47:14;94248.16;;;11.71;88.26
39223;BME280;24936;46.328;11.026;2023-05-23T04:49:40;94246.19;;;11.73;87.02
39223;BME280;24936;46.328;11.026;2023-05-23T04:52:06;94244.28;;;11.83;87.09
39223;BME280;24936;46.328;11.026;2023-05-23T04:54:31;94235.41;;;11.84;86.48
39223;BME280;24936;46.328;11.026;2023-05-23T04:56:57;94240.72;;;11.92;87.01
39223;BME280;24936;46.328;11.026;2023-05-23T04:59:23;94238.34;;;11.99;86.69
39223;BME280;24936;46.328;11.026;2023-05-23T05:01:48;94241.88;;;12.08;85.71
39223;BME280;24936;46.328;11.026;2023-05-23T05:04:14;94246.66;;;12.13;86.18
39223;BME280;24936;46.328;11.026;2023-05-23T05:06:40;94246.16;;;12.09;87.70
39223;BME280;24936;46.328;11.026;2023-05-23T05:09:05;94247.53;;;12.13;86.50
39223;BME280;24936;46.328;11.026;2023-05-23T05:11:31;94239.13;;;12.18;85.80
39223;BME280;24936;46.328;11.026;2023-05-23T05:13:56;94247.22;;;12.16;86.24
39223;BME280;24936;46.328;11.026;2023-05-23T05:16:25;94245.84;;;12.12;85.13
39223;BME280;24936;46.328;11.026;2023-05-23T05:21:26;94252.22;;;12.28;85.40
39223;BME280;24936;46.328;11.026;2023-05-23T05:23:51;94240.38;;;12.32;84.54
39223;BME280;24936;46.328;11.026;2023-05-23T06:34:19;94224.97;;;15.73;72.06
39223;BME280;24936;46.328;11.026;2023-05-23T06:48:23;94211.38;;;16.14;72.68
39223;BME280;24936;46.328;11.026;2023-05-23T06:53:43;94205.38;;;16.20;71.95
39223;BME280;24936;46.328;11.026;2023-05-23T06:56:11;94203.72;;;16.19;71.55
39223;BME280;24936;46.328;11.026;2023-05-23T06:59:19;94207.66;;;16.24;72.51
39223;BME280;24936;46.328;11.026;2023-05-23T08:08:04;94151.72;;;20.62;60.21
39223;BME280;24936;46.328;11.026;2023-05-23T09:54:55;94032.97;;;30.90;30.14
39223;BME280;24936;46.328;11.026;2023-05-23T11:00:56;93967.50;;;33.27;22.54
39223;BME280;24936;46.328;11.026;2023-05-23T11:03:48;93972.66;;;33.48;23.53
39223;BME280;24936;46.328;11.026;2023-05-23T11:21:43;93957.50;;;27.58;36.04
39223;BME280;24936;46.328;11.026;2023-05-23T11:24:09;93958.28;;;27.21;43.12
39223;BME280;24936;46.328;11.026;2023-05-23T11:26:35;93957.50;;;26.76;44.38
39223;BME280;24936;46.328;11.026;2023-05-23T11:29:00;93950.66;;;26.68;43.04
39223;BME280;24936;46.328;11.026;2023-05-23T11:31:29;93949.81;;;26.62;46.78
39223;BME280;24936;46.328;11.026;2023-05-23T11:33:55;93958.22;;;26.66;42.97
39223;BME280;24936;46.328;11.026;2023-05-23T11:56:59;93947.22;;;32.27;34.09
39223;BME280;24936;46.328;11.026;2023-05-23T11:59:31;93948.66;;;33.50;26.62
39223;BME280;24936;46.328;11.026;2023-05-23T12:48:34;93990.53;;;20.68;50.59
39223;BME280;24936;46.328;11.026;2023-05-23T14:17:30;94027.09;;;20.68;57.26
39223;BME280;24936;46.328;11.026;2023-05-23T14:19:56;94023.81;;;20.66;56.25
39223;BME280;24936;46.328;11.026;2023-05-23T14:22:21;94025.06;;;20.63;56.33
39223;BME280;24936;46.328;11.026;2023-05-23T14:24:49;94031.69;;;20.60;56.60
39223;BME280;24936;46.328;11.026;2023-05-23T14:27:18;94027.75;;;20.63;55.69
39223;BME280;24936;46.328;11.026;2023-05-23T15:59:07;94006.38;;;21.59;53.05
39223;BME280;24936;46.328;11.026;2023-05-23T16:01:34;94006.16;;;21.86;55.05
39223;BME280;24936;46.328;11.026;2023-05-23T16:04:00;94012.00;;;22.20;54.82
39223;BME280;24936;46.328;11.026;2023-05-23T16:32:16;94016.69;;;21.56;58.46
39223;BME280;24936;46.328;11.026;2023-05-23T16:34:42;94007.19;;;21.34;58.50
39223;BME280;24936;46.328;11.026;2023-05-23T16:37:08;94010.44;;;21.11;57.22
39223;BME280;24936;46.328;11.026;2023-05-23T16:39:36;94012.94;;;21.06;61.86
39223;BME280;24936;46.328;11.026;2023-05-23T16:42:03;94009.69;;;20.97;61.37
39223;BME280;24936;46.328;11.026;2023-05-23T16:44:28;94016.78;;;20.78;59.94
39223;BME280;24936;46.328;11.026;2023-05-23T16:46:54;94016.38;;;20.74;61.51
39223;BME280;24936;46.328;11.026;2023-05-23T16:49:19;94021.44;;;20.51;63.62
39223;BME280;24936;46.328;11.026;2023-05-23T16:54:10;94016.91;;;20.44;62.87
39223;BME280;24936;46.328;11.026;2023-05-23T16:56:36;94017.81;;;20.31;62.50
39223;BME280;24936;46.328;11.026;2023-05-23T16:59:03;94023.44;;;19.96;62.07
39223;BME280;24936;46.328;11.026;2023-05-23T17:01:52;94019.75;;;19.70;64.61
39223;BME280;24936;46.328;11.026;2023-05-23T17:04:18;94017.91;;;19.51;65.39
39223;BME280;24936;46.328;11.026;2023-05-23T17:06:43;94018.75;;;19.38;67.86
39223;BME280;24936;46.328;11.026;2023-05-23T17:09:09;94015.06;;;19.39;70.53
39223;BME280;24936;46.328;11.026;2023-05-23T17:11:34;94023.22;;;19.17;70.86
39223;BME280;24936;46.328;11.026;2023-05-23T17:14:00;94016.69;;;19.20;70.35
39223;BME280;24936;46.328;11.026;2023-05-23T17:16:25;94022.53;;;18.88;71.70
39223;BME280;24936;46.328;11.026;2023-05-23T17:18:54;94015.47;;;19.22;68.29
39223;BME280;24936;46.328;11.026;2023-05-23T17:21:19;94024.69;;;19.06;68.41
39223;BME280;24936;46.328;11.026;2023-05-23T17:23:45;94028.06;;;18.80;68.22
39223;BME280;24936;46.328;11.026;2023-05-23T17:26:11;94019.41;;;18.64;68.97
39223;BME280;24936;46.328;11.026;2023-05-23T17:28:36;94023.25;;;18.48;70.48
39223;BME280;24936;46.328;11.026;2023-05-23T17:31:02;94030.38;;;18.34;70.61
39223;BME280;24936;46.328;11.026;2023-05-23T17:33:27;94033.22;;;18.26;69.23
39223;BME280;24936;46.328;11.026;2023-05-23T17:35:53;94031.13;;;18.15;71.11
39223;BME280;24936;46.328;11.026;2023-05-23T17:38:18;94041.94;;;18.13;72.61
39223;BME280;24936;46.328;11.026;2023-05-23T17:40:44;94048.31;;;18.19;69.49
39223;BME280;24936;46.328;11.026;2023-05-23T17:43:09;94054.38;;;17.99;72.33
39223;BME280;24936;46.328;11.026;2023-05-23T17:45:36;94055.06;;;17.86;69.15
39223;BME280;24936;46.328;11.026;2023-05-23T17:48:01;94050.97;;;17.84;68.80
39223;BME280;24936;46.328;11.026;2023-05-23T17:50:28;94048.50;;;17.82;68.66
39223;BME280;24936;46.328;11.026;2023-05-23T17:52:53;94050.59;;;17.87;68.17
39223;BME280;24936;46.328;11.026;2023-05-23T17:55:19;94048.06;;;17.79;69.20
39223;BME280;24936;46.328;11.026;2023-05-23T17:57:44;94056.25;;;17.77;68.45
39223;BME280;24936;46.328;11.026;2023-05-23T18:00:10;94059.63;;;17.64;68.51
39223;BME280;24936;46.328;11.026;2023-05-23T18:02:35;94054.13;;;17.66;69.46
39223;BME280;24936;46.328;11.026;2023-05-23T18:05:01;94069.19;;;17.58;69.44
39223;BME280;24936;46.328;11.026;2023-05-23T18:07:26;94067.63;;;17.42;69.25
39223;BME280;24936;46.328;11.026;2023-05-23T18:09:52;94067.91;;;17.48;68.68
39223;BME280;24936;46.328;11.026;2023-05-23T18:12:17;94078.13;;;17.51;69.05
39223;BME280;24936;46.328;11.026;2023-05-23T18:14:43;94067.50;;;17.51;69.70
39223;BME280;24936;46.328;11.026;2023-05-23T18:17:08;94081.63;;;17.51;69.23
39223;BME280;24936;46.328;11.026;2023-05-23T18:19:34;94083.09;;;17.32;69.28
39223;BME280;24936;46.328;11.026;2023-05-23T18:22:00;94086.38;;;17.34;69.91
39223;BME280;24936;46.328;11.026;2023-05-23T18:24:25;94088.84;;;17.14;70.78
39223;BME280;24936;46.328;11.026;2023-05-23T18:26:51;94091.84;;;17.04;71.09
39223;BME280;24936;46.328;11.026;2023-05-23T18:29:16;94097.31;;;17.03;71.01
39223;BME280;24936;46.328;11.026;2023-05-23T18:31:45;94097.44;;;16.94;71.42
39223;BME280;24936;46.328;11.026;2023-05-23T18:34:11;94112.72;;;16.92;72.17
39223;BME280;24936;46.328;11.026;2023-05-23T18:36:37;94106.88;;;16.97;72.34
39223;BME280;24936;46.328;11.026;2023-05-23T18:39:02;94112.72;;;16.92;71.75
39223;BME280;24936;46.328;11.026;2023-05-23T18:41:29;94112.84;;;16.84;72.55
39223;BME280;24936;46.328;11.026;2023-05-23T18:43:55;94121.00;;;16.82;72.22
39223;BME280;24936;46.328;11.026;2023-05-23T18:46:21;94118.34;;;16.82;72.65
39223;BME280;24936;46.328;11.026;2023-05-23T18:48:48;94129.59;;;16.85;72.44
39223;BME280;24936;46.328;11.026;2023-05-23T18:51:13;94122.41;;;16.78;73.44
39223;BME280;24936;46.328;11.026;2023-05-23T18:53:39;94127.06;;;16.76;73.88
39223;BME280;24936;46.328;11.026;2023-05-23T18:56:05;94127.53;;;16.65;74.23
39223;BME280;24936;46.328;11.026;2023-05-23T18:58:30;94123.31;;;16.56;74.24
39223;BME280;24936;46.328;11.026;2023-05-23T19:00:56;94133.66;;;16.65;73.80
39223;BME280;24936;46.328;11.026;2023-05-23T19:03:27;94137.69;;;16.61;74.02
39223;BME280;24936;46.328;11.026;2023-05-23T19:05:53;94145.94;;;16.51;74.51
39223;BME280;24936;46.328;11.026;2023-05-23T19:13:31;94155.03;;;16.42;75.30
39223;BME280;24936;46.328;11.026;2023-05-23T19:15:57;94156.13;;;16.33;75.67
39223;BME280;24936;46.328;11.026;2023-05-23T19:18:23;94167.22;;;16.22;77.85
39223;BME280;24936;46.328;11.026;2023-05-23T19:20:49;94161.69;;;16.23;76.03
39223;BME280;24936;46.328;11.026;2023-05-23T19:23:19;94163.66;;;16.29;76.86
39223;BME280;24936;46.328;11.026;2023-05-23T19:25:45;94170.59;;;16.45;75.01
39223;BME280;24936;46.328;11.026;2023-05-23T19:28:10;94176.06;;;16.29;76.53
39223;BME280;24936;46.328;11.026;2023-05-23T19:30:36;94171.06;;;16.34;75.02
39223;BME280;24936;46.328;11.026;2023-05-23T19:33:03;94184.69;;;16.46;74.55
39223;BME280;24936;46.328;11.026;2023-05-23T19:35:29;94171.16;;;16.41;74.16
39223;BME280;24936;46.328;11.026;2023-05-23T19:37:54;94176.47;;;16.41;74.27
39223;BME280;24936;46.328;11.026;2023-05-23T19:40:20;94185.50;;;16.31;74.95
39223;BME280;24936;46.328;11.026;2023-05-23T19:42:46;94188.78;;;16.18;75.51
39223;BME280;24936;46.328;11.026;2023-05-23T19:45:11;94190.59;;;16.03;76.29
39223;BME280;24936;46.328;11.026;2023-05-23T19:47:37;94198.44;;;15.96;76.60
39223;BME280;24936;46.328;11.026;2023-05-23T19:50:03;94193.34;;;15.95;75.78
39223;BME280;24936;46.328;11.026;2023-05-23T19:52:29;94196.44;;;15.75;76.82
39223;BME280;24936;46.328;11.026;2023-05-23T19:54:54;94202.44;;;15.69;77.67
39223;BME280;24936;46.328;11.026;2023-05-23T19:57:20;94192.13;;;15.51;78.66
39223;BME280;24936;46.328;11.026;2023-05-23T19:59:45;94200.22;;;15.57;78.12
39223;BME280;24936;46.328;11.026;2023-05-23T20:02:11;94198.91;;;15.53;76.78
39223;BME280;24936;46.328;11.026;2023-05-23T20:04:36;94202.81;;;15.42;78.94
39223;BME280;24936;46.328;11.026;2023-05-23T20:07:02;94200.03;;;15.36;79.15
39223;BME280;24936;46.328;11.026;2023-05-23T20:09:27;94205.34;;;15.36;77.49
39223;BME280;24936;46.328;11.026;2023-05-23T20:11:53;94213.72;;;15.16;78.18
39223;BME280;24936;46.328;11.026;2023-05-23T20:14:18;94207.78;;;15.14;78.37
39223;BME280;24936;46.328;11.026;2023-05-23T20:16:46;94205.13;;;15.14;76.31
39223;BME280;24936;46.328;11.026;2023-05-23T20:19:12;94208.69;;;14.98;78.82
39223;BME280;24936;46.328;11.026;2023-05-23T20:21:37;94222.31;;;14.87;79.81
39223;BME280;24936;46.328;11.026;2023-05-23T20:24:03;94216.91;;;14.72;79.31
39223;BME280;24936;46.328;11.026;2023-05-23T20:26:28;94221.22;;;14.73;80.07
39223;BME280;24936;46.328;11.026;2023-05-23T20:28:54;94223.88;;;14.64;80.06
39223;BME280;24936;46.328;11.026;2023-05-23T20:31:19;94225.91;;;14.54;78.67
39223;BME280;24936;46.328;11.026;2023-05-23T20:33:45;94224.19;;;14.61;77.11
39223;BME280;24936;46.328;11.026;2023-05-23T20:38:54;94236.03;;;14.34;78.63
39223;BME280;24936;46.328;11.026;2023-05-23T20:41:28;94237.03;;;14.25;78.66
39223;BME280;24936;46.328;11.026;2023-05-23T20:43:53;94244.44;;;14.46;78.58
39223;BME280;24936;46.328;11.026;2023-05-23T20:51:53;94239.78;;;14.48;79.23
39223;BME280;24936;46.328;11.026;2023-05-23T20:54:19;94239.28;;;14.52;78.17
39223;BME280;24936;46.328;11.026;2023-05-23T20:56:46;94243.44;;;14.55;77.75
39223;BME280;24936;46.328;11.026;2023-05-23T20:59:11;94242.41;;;14.64;77.63
39223;BME280;24936;46.328;11.026;2023-05-23T21:01:37;94242.13;;;14.51;77.80
39223;BME280;24936;46.328;11.026;2023-05-23T21:09:17;94257.19;;;14.26;78.84
39223;BME280;24936;46.328;11.026;2023-05-23T21:11:43;94254.72;;;14.16;79.94
39223;BME280;24936;46.328;11.026;2023-05-23T21:14:09;94259.22;;;14.15;80.35
39223;BME280;24936;46.328;11.026;2023-05-23T21:16:35;94250.94;;;14.10;81.49
39223;BME280;24936;46.328;11.026;2023-05-23T21:19:00;94254.41;;;14.02;81.85
39223;BME280;24936;46.328;11.026;2023-05-23T21:21:26;94251.63;;;14.04;81.53
39223;BME280;24936;46.328;11.026;2023-05-23T21:24:10;94255.41;;;14.10;81.14
39223;BME280;24936;46.328;11.026;2023-05-23T21:26:35;94259.19;;;14.23;81.00
39223;BME280;24936;46.328;11.026;2023-05-23T21:29:01;94255.56;;;14.25;81.05
39223;BME280;24936;46.328;11.026;2023-05-23T21:31:26;94260.34;;;14.29;80.87
39223;BME280;24936;46.328;11.026;2023-05-23T21:33:52;94255.19;;;14.36;79.56
39223;BME280;24936;46.328;11.026;2023-05-23T21:36:17;94253.22;;;14.21;80.14
39223;BME280;24936;46.328;11.026;2023-05-23T21:38:43;94259.38;;;14.22;80.25
39223;BME280;24936;46.328;11.026;2023-05-23T21:54:21;94254.88;;;14.22;82.03
39223;BME280;24936;46.328;11.026;2023-05-23T21:56:47;94248.63;;;14.15;81.94
39223;BME280;24936;46.328;11.026;2023-05-23T21:59:12;94254.75;;;14.07;82.52
39223;BME280;24936;46.328;11.026;2023-05-23T22:01:38;94256.41;;;14.09;81.85
39223;BME280;24936;46.328;11.026;2023-05-23T22:04:03;94260.06;;;13.99;81.90
39223;BME280;24936;46.328;11.026;2023-05-23T22:06:29;94261.19;;;13.88;82.58
39223;BME280;24936;46.328;11.026;2023-05-23T22:08:55;94264.16;;;13.85;83.37
39223;BME280;24936;46.328;11.026;2023-05-23T22:11:20;94261.88;;;13.90;84.30
39223;BME280;24936;46.328;11.026;2023-05-23T22:13:46;94265.81;;;13.70;84.26
39223;BME280;24936;46.328;11.026;2023-05-23T22:16:11;94267.13;;;13.74;84.42
39223;BME280;24936;46.328;11.026;2023-05-23T22:18:37;94274.59;;;13.95;82.96
39223;BME280;24936;46.328;11.026;2023-05-23T22:21:07;94264.69;;;13.97;82.06
39223;BME280;24936;46.328;11.026;2023-05-23T22:23:33;94264.00;;;13.95;84.37
39223;BME280;24936;46.328;11.026;2023-05-23T22:44:13;94263.53;;;13.91;85.42
39223;BME280;24936;46.328;11.026;2023-05-23T22:46:39;94263.00;;;13.80;85.23
39223;BME280;24936;46.328;11.026;2023-05-23T22:49:06;94270.91;;;13.63;86.54
39223;BME280;24936;46.328;11.026;2023-05-23T22:51:33;94257.69;;;13.63;87.43
39223;BME280;24936;46.328;11.026;2023-05-23T22:53:59;94258.53;;;13.72;86.07
39223;BME280;24936;46.328;11.026;2023-05-23T22:56:25;94260.84;;;13.67;86.31
39223;BME280;24936;46.328;11.026;2023-05-23T22:58:51;94260.53;;;13.70;86.34
39223;BME280;24936;46.328;11.026;2023-05-23T23:01:17;94264.16;;;13.60;86.95
39223;BME280;24936;46.328;11.026;2023-05-23T23:03:42;94263.31;;;13.52;87.01
39223;BME280;24936;46.328;11.026;2023-05-23T23:06:07;94254.38;;;13.44;87.22
39223;BME280;24936;46.328;11.026;2023-05-23T23:08:34;94249.44;;;13.58;87.69
39223;BME280;24936;46.328;11.026;2023-05-23T23:10:59;94254.28;;;13.20;89.03
39223;BME280;24936;46.328;11.026;2023-05-23T23:13:25;94249.94;;;13.02;89.88
39223;BME280;24936;46.328;11.026;2023-05-23T23:15:51;94250.75;;;12.94;90.82
39223;BME280;24936;46.328;11.026;2023-05-23T23:18:16;94253.53;;;12.93;91.21
39223;BME280;24936;46.328;11.026;2023-05-23T23:20:43;94252.72;;;12.92;91.85
39223;BME280;24936;46.328;11.026;2023-05-23T23:23:08;94246.72;;;12.82;92.28
39223;BME280;24936;46.328;11.026;2023-05-23T23:25:34;94249.69;;;12.79;91.63
39223;BME280;24936;46.328;11.026;2023-05-23T23:28:00;94244.06;;;12.74;91.43
39223;BME280;24936;46.328;11.026;2023-05-23T23:30:26;94251.59;;;12.68;91.81
39223;BME280;24936;46.328;11.026;2023-05-23T23:32:52;94243.84;;;12.59;92.06
39223;BME280;24936;46.328;11.026;2023-05-23T23:35:17;94240.47;;;12.48;92.45
39223;BME280;24936;46.328;11.026;2023-05-23T23:37:42;94247.72;;;12.46;93.17
39223;BME280;24936;46.328;11.026;2023-05-23T23:40:08;94236.31;;;12.19;93.49
39223;BME280;24936;46.328;11.026;2023-05-23T23:42:34;94244.31;;;12.28;93.55
39223;BME280;24936;46.328;11.026;2023-05-23T23:45:00;94248.59;;;12.29;93.05
39223;BME280;24936;46.328;11.026;2023-05-23T23:47:25;94245.25;;;12.18;93.52
39223;BME280;24936;46.328;11.026;2023-05-23T23:49:51;94245.25;;;12.18;93.90
39223;BME280;24936;46.328;11.026;2023-05-23T23:52:16;94243.47;;;12.27;93.57
39223;BME280;24936;46.328;11.026;2023-05-23T23:54:42;94243.03;;;12.32;93.41
39223;BME280;24936;46.328;11.026;2023-05-23T23:57:07;94233.25;;;12.24;93.21
39223;BME280;24936;46.328;11.026;2023-05-23T23:59:39;94237.34;;;12.18;92.85
